sensor_id;sensor_type;location;lat;lon;timestamp;pressure;altitude;pressure_sealevel;temperature;humidity
78407;BME280;67692;51.074;-1.790;2023-05-10T00:01:27;100646.22;;;12.14;84.02
78407;BME280;67692;51.074;-1.790;2023-05-10T00:03:53;100646.97;;;12.16;84.97
78407;BME280;67692;51.074;-1.790;2023-05-10T00:06:20;100649.56;;;12.16;84.78
78407;BME280;67692;51.074;-1.790;2023-05-10T00:08:46;100647.66;;;12.18;84.50
78407;BME280;67692;51.074;-1.790;2023-05-10T00:11:13;100644.56;;;12.13;84.00
78407;BME280;67692;51.074;-1.790;2023-05-10T00:13:40;100650.13;;;12.09;84.76
78407;BME280;67692;51.074;-1.790;2023-05-10T00:16:06;100650.59;;;12.03;84.14
78407;BME280;67692;51.074;-1.790;2023-05-10T00:18:34;100657.44;;;12.04;84.19
78407;BME280;67692;51.074;-1.790;2023-05-10T00:21:01;100656.63;;;12.03;84.81
78407;BME280;67692;51.074;-1.790;2023-05-10T00:23:28;100652.50;;;12.01;84.68
78407;BME280;67692;51.074;-1.790;2023-05-10T00:25:55;100655.16;;;11.99;85.03
78407;BME280;67692;51.074;-1.790;2023-05-10T00:28:22;100656.47;;;11.94;84.47
78407;BME280;67692;51.074;-1.790;2023-05-10T00:30:48;100655.66;;;11.93;84.08
78407;BME280;67692;51.074;-1.790;2023-05-10T00:33:15;100648.88;;;11.79;83.82
78407;BME280;67692;51.074;-1.790;2023-05-10T00:35:43;100647.81;;;11.82;84.69
78407;BME280;67692;51.074;-1.790;2023-05-10T00:38:10;100651.13;;;11.84;84.13
78407;BME280;67692;51.074;-1.790;2023-05-10T00:40:36;100646.28;;;11.79;83.63
78407;BME280;67692;51.074;-1.790;2023-05-10T00:43:04;100653.47;;;11.76;83.39
78407;BME280;67692;51.074;-1.790;2023-05-10T00:45:32;100653.25;;;11.79;83.95
78407;BME280;67692;51.074;-1.790;2023-05-10T00:48:00;100650.97;;;11.74;83.11
78407;BME280;67692;51.074;-1.790;2023-05-10T00:50:29;100648.06;;;11.79;84.12
78407;BME280;67692;51.074;-1.790;2023-05-10T00:52:57;100663.25;;;11.72;84.11
78407;BME280;67692;51.074;-1.790;2023-05-10T00:55:25;100658.13;;;11.71;84.03
78407;BME280;67692;51.074;-1.790;2023-05-10T00:57:52;100663.69;;;11.66;83.14
78407;BME280;67692;51.074;-1.790;2023-05-10T01:00:20;100656.00;;;11.65;83.75
78407;BME280;67692;51.074;-1.790;2023-05-10T01:02:46;100662.38;;;11.60;84.09
78407;BME280;67692;51.074;-1.790;2023-05-10T01:05:14;100655.41;;;11.61;85.53
78407;BME280;67692;51.074;-1.790;2023-05-10T01:07:41;100673.22;;;11.66;84.45
78407;BME280;67692;51.074;-1.790;2023-05-10T01:10:09;100668.50;;;11.59;83.62
78407;BME280;67692;51.074;-1.790;2023-05-10T01:12:38;100672.47;;;11.52;83.38
78407;BME280;67692;51.074;-1.790;2023-05-10T01:15:07;100673.63;;;11.48;84.40
78407;BME280;67692;51.074;-1.790;2023-05-10T01:17:34;100672.94;;;11.46;84.06
78407;BME280;67692;51.074;-1.790;2023-05-10T01:20:02;100674.34;;;11.50;84.56
78407;BME280;67692;51.074;-1.790;2023-05-10T01:25:43;100678.13;;;11.46;84.44
78407;BME280;67692;51.074;-1.790;2023-05-10T01:28:25;100676.06;;;11.39;85.10
78407;BME280;67692;51.074;-1.790;2023-05-10T01:31:13;100683.72;;;11.40;84.60
78407;BME280;67692;51.074;-1.790;2023-05-10T01:33:52;100686.84;;;11.45;84.48
78407;BME280;67692;51.074;-1.790;2023-05-10T01:36:25;100688.38;;;11.48;83.06
78407;BME280;67692;51.074;-1.790;2023-05-10T01:38:57;100687.31;;;11.50;84.35
78407;BME280;67692;51.074;-1.790;2023-05-10T01:41:30;100691.56;;;11.51;84.51
78407;BME280;67692;51.074;-1.790;2023-05-10T01:44:04;100690.13;;;11.47;84.53
78407;BME280;67692;51.074;-1.790;2023-05-10T01:46:35;100680.72;;;11.46;84.16
78407;BME280;67692;51.074;-1.790;2023-05-10T01:49:08;100685.19;;;11.44;84.48
78407;BME280;67692;51.074;-1.790;2023-05-10T01:51:39;100688.59;;;11.45;84.28
78407;BME280;67692;51.074;-1.790;2023-05-10T01:54:08;100688.72;;;11.43;83.79
78407;BME280;67692;51.074;-1.790;2023-05-10T01:56:37;100689.53;;;11.44;82.75
78407;BME280;67692;51.074;-1.790;2023-05-10T01:59:08;100697.81;;;11.49;83.45
78407;BME280;67692;51.074;-1.790;2023-05-10T02:01:38;100701.00;;;11.52;82.75
78407;BME280;67692;51.074;-1.790;2023-05-10T02:04:08;100697.34;;;11.55;83.51
78407;BME280;67692;51.074;-1.790;2023-05-10T02:06:38;100698.78;;;11.59;83.48
78407;BME280;67692;51.074;-1.790;2023-05-10T02:09:06;100698.56;;;11.62;83.88
78407;BME280;67692;51.074;-1.790;2023-05-10T02:11:34;100698.94;;;11.69;82.91
78407;BME280;67692;51.074;-1.790;2023-05-10T02:14:05;100701.50;;;11.57;82.96
78407;BME280;67692;51.074;-1.790;2023-05-10T02:16:35;100695.09;;;11.50;82.99
78407;BME280;67692;51.074;-1.790;2023-05-10T02:19:02;100696.09;;;11.60;83.63
78407;BME280;67692;51.074;-1.790;2023-05-10T02:21:31;100701.50;;;11.57;83.33
78407;BME280;67692;51.074;-1.790;2023-05-10T02:23:59;100698.69;;;11.60;83.27
78407;BME280;67692;51.074;-1.790;2023-05-10T02:26:27;100703.59;;;11.52;82.64
78407;BME280;67692;51.074;-1.790;2023-05-10T02:28:56;100703.81;;;11.49;83.62
78407;BME280;67692;51.074;-1.790;2023-05-10T02:31:24;100693.50;;;11.60;82.67
78407;BME280;67692;51.074;-1.790;2023-05-10T02:33:53;100701.34;;;11.48;81.99
78407;BME280;67692;51.074;-1.790;2023-05-10T02:36:21;100694.50;;;11.47;82.72
78407;BME280;67692;51.074;-1.790;2023-05-10T02:38:51;100698.63;;;11.49;82.76
78407;BME280;67692;51.074;-1.790;2023-05-10T02:41:19;100700.50;;;11.47;82.75
78407;BME280;67692;51.074;-1.790;2023-05-10T02:43:47;100701.06;;;11.40;83.63
78407;BME280;67692;51.074;-1.790;2023-05-10T02:46:15;100701.38;;;11.35;84.07
78407;BME280;67692;51.074;-1.790;2023-05-10T02:48:42;100707.88;;;11.41;83.48
78407;BME280;67692;51.074;-1.790;2023-05-10T02:51:09;100709.88;;;11.37;83.57
78407;BME280;67692;51.074;-1.790;2023-05-10T02:53:40;100709.16;;;11.35;83.83
78407;BME280;67692;51.074;-1.790;2023-05-10T02:56:13;100712.00;;;11.32;83.53
78407;BME280;67692;51.074;-1.790;2023-05-10T02:58:41;100703.28;;;11.33;83.46
78407;BME280;67692;51.074;-1.790;2023-05-10T03:01:08;100719.19;;;11.40;83.64
78407;BME280;67692;51.074;-1.790;2023-05-10T03:03:35;100715.53;;;11.31;83.80
78407;BME280;67692;51.074;-1.790;2023-05-10T03:06:01;100720.91;;;11.28;83.08
78407;BME280;67692;51.074;-1.790;2023-05-10T03:08:28;100718.75;;;11.22;83.45
78407;BME280;67692;51.074;-1.790;2023-05-10T03:11:06;100719.91;;;11.18;83.86
78407;BME280;67692;51.074;-1.790;2023-05-10T03:13:45;100716.38;;;11.19;84.10
78407;BME280;67692;51.074;-1.790;2023-05-10T03:16:16;100712.44;;;11.13;84.17
78407;BME280;67692;51.074;-1.790;2023-05-10T03:19:02;100714.66;;;11.07;83.89
78407;BME280;67692;51.074;-1.790;2023-05-10T03:21:33;100718.63;;;10.99;84.60
78407;BME280;67692;51.074;-1.790;2023-05-10T03:24:07;100711.06;;;10.96;85.12
78407;BME280;67692;51.074;-1.790;2023-05-10T03:26:34;100723.81;;;10.99;84.76
78407;BME280;67692;51.074;-1.790;2023-05-10T03:29:04;100716.03;;;10.99;84.12
78407;BME280;67692;51.074;-1.790;2023-05-10T03:31:31;100720.38;;;10.99;84.63
78407;BME280;67692;51.074;-1.790;2023-05-10T03:33:58;100715.00;;;11.02;84.04
78407;BME280;67692;51.074;-1.790;2023-05-10T03:36:25;100718.91;;;11.08;84.02
78407;BME280;67692;51.074;-1.790;2023-05-10T03:38:52;100717.03;;;11.10;83.87
78407;BME280;67692;51.074;-1.790;2023-05-10T03:41:18;100723.88;;;11.11;83.74
78407;BME280;67692;51.074;-1.790;2023-05-10T03:43:45;100710.63;;;11.02;83.44
78407;BME280;67692;51.074;-1.790;2023-05-10T03:46:13;100720.78;;;11.06;84.08
78407;BME280;67692;51.074;-1.790;2023-05-10T03:48:40;100720.28;;;11.00;83.88
78407;BME280;67692;51.074;-1.790;2023-05-10T03:51:07;100731.16;;;11.06;83.76
78407;BME280;67692;51.074;-1.790;2023-05-10T03:53:33;100729.50;;;11.05;83.65
78407;BME280;67692;51.074;-1.790;2023-05-10T03:56:00;100725.66;;;10.97;83.93
78407;BME280;67692;51.074;-1.790;2023-05-10T03:58:27;100728.25;;;10.97;83.99
78407;BME280;67692;51.074;-1.790;2023-05-10T04:00:53;100735.09;;;10.98;83.83
78407;BME280;67692;51.074;-1.790;2023-05-10T04:03:21;100735.09;;;10.98;83.38
78407;BME280;67692;51.074;-1.790;2023-05-10T04:05:48;100735.41;;;10.94;83.95
78407;BME280;67692;51.074;-1.790;2023-05-10T04:08:15;100734.31;;;10.85;84.37
78407;BME280;67692;51.074;-1.790;2023-05-10T04:10:42;100741.88;;;10.88;84.52
78407;BME280;67692;51.074;-1.790;2023-05-10T04:13:08;100747.53;;;10.93;84.93
78407;BME280;67692;51.074;-1.790;2023-05-10T04:15:35;100746.38;;;10.97;84.25
78407;BME280;67692;51.074;-1.790;2023-05-10T04:18:01;100750.44;;;11.01;84.71
78407;BME280;67692;51.074;-1.790;2023-05-10T04:20:29;100752.00;;;11.04;84.22
78407;BME280;67692;51.074;-1.790;2023-05-10T04:22:58;100745.03;;;11.05;83.89
78407;BME280;67692;51.074;-1.790;2023-05-10T04:25:24;100748.72;;;11.13;84.28
78407;BME280;67692;51.074;-1.790;2023-05-10T04:27:51;100740.13;;;11.13;83.58
78407;BME280;67692;51.074;-1.790;2023-05-10T04:30:18;100747.91;;;11.13;83.73
78407;BME280;67692;51.074;-1.790;2023-05-10T04:32:45;100753.41;;;11.08;83.29
78407;BME280;67692;51.074;-1.790;2023-05-10T04:35:11;100748.53;;;11.16;83.99
78407;BME280;67692;51.074;-1.790;2023-05-10T04:37:41;100749.84;;;11.22;84.02
78407;BME280;67692;51.074;-1.790;2023-05-10T04:40:09;100741.84;;;11.25;84.12
78407;BME280;67692;51.074;-1.790;2023-05-10T04:42:36;100741.16;;;11.23;84.48
78407;BME280;67692;51.074;-1.790;2023-05-10T04:45:03;100746.34;;;11.23;83.38
78407;BME280;67692;51.074;-1.790;2023-05-10T04:47:30;100749.97;;;11.20;84.03
78407;BME280;67692;51.074;-1.790;2023-05-10T04:49:57;100745.84;;;11.18;83.95
78407;BME280;67692;51.074;-1.790;2023-05-10T04:52:24;100755.88;;;11.22;84.17
78407;BME280;67692;51.074;-1.790;2023-05-10T04:54:52;100751.84;;;11.18;84.57
78407;BME280;67692;51.074;-1.790;2023-05-10T04:57:19;100757.16;;;11.17;84.93
78407;BME280;67692;51.074;-1.790;2023-05-10T04:59:45;100746.22;;;11.24;84.86
78407;BME280;67692;51.074;-1.790;2023-05-10T05:02:12;100754.00;;;11.24;84.73
78407;BME280;67692;51.074;-1.790;2023-05-10T05:04:39;100762.59;;;11.25;84.86
78407;BME280;67692;51.074;-1.790;2023-05-10T05:07:06;100759.28;;;11.23;85.04
78407;BME280;67692;51.074;-1.790;2023-05-10T05:09:32;100764.13;;;11.27;84.85
78407;BME280;67692;51.074;-1.790;2023-05-10T05:12:00;100759.59;;;11.31;85.08
78407;BME280;67692;51.074;-1.790;2023-05-10T05:14:27;100760.78;;;11.38;84.91
78407;BME280;67692;51.074;-1.790;2023-05-10T05:16:53;100762.34;;;11.41;85.04
78407;BME280;67692;51.074;-1.790;2023-05-10T05:19:21;100771.78;;;11.42;84.87
78407;BME280;67692;51.074;-1.790;2023-05-10T05:21:47;100772.50;;;11.44;84.76
78407;BME280;67692;51.074;-1.790;2023-05-10T05:24:14;100774.28;;;11.43;85.28
78407;BME280;67692;51.074;-1.790;2023-05-10T05:26:40;100783.59;;;11.46;85.33
78407;BME280;67692;51.074;-1.790;2023-05-10T05:29:08;100784.66;;;11.43;85.11
78407;BME280;67692;51.074;-1.790;2023-05-10T05:31:35;100779.53;;;11.42;85.20
78407;BME280;67692;51.074;-1.790;2023-05-10T05:34:01;100786.59;;;11.40;85.08
78407;BME280;67692;51.074;-1.790;2023-05-10T05:36:28;100792.03;;;11.37;85.01
78407;BME280;67692;51.074;-1.790;2023-05-10T05:38:56;100794.50;;;11.38;85.38
78407;BME280;67692;51.074;-1.790;2023-05-10T05:41:22;100794.28;;;11.41;84.36
78407;BME280;67692;51.074;-1.790;2023-05-10T05:43:49;100802.34;;;11.49;84.47
78407;BME280;67692;51.074;-1.790;2023-05-10T05:46:17;100792.81;;;11.50;84.30
78407;BME280;67692;51.074;-1.790;2023-05-10T05:48:44;100801.41;;;11.50;85.15
78407;BME280;67692;51.074;-1.790;2023-05-10T05:51:10;100799.88;;;11.48;84.18
78407;BME280;67692;51.074;-1.790;2023-05-10T05:53:37;100804.72;;;11.52;84.23
78407;BME280;67692;51.074;-1.790;2023-05-10T05:56:04;100802.53;;;11.59;84.18
78407;BME280;67692;51.074;-1.790;2023-05-10T05:58:31;100810.81;;;11.64;84.20
78407;BME280;67692;51.074;-1.790;2023-05-10T06:00:57;100801.25;;;11.65;84.77
78407;BME280;67692;51.074;-1.790;2023-05-10T06:03:25;100804.56;;;11.67;82.75
78407;BME280;67692;51.074;-1.790;2023-05-10T06:05:52;100807.28;;;11.65;83.16
78407;BME280;67692;51.074;-1.790;2023-05-10T06:08:18;100807.88;;;11.69;84.56
78407;BME280;67692;51.074;-1.790;2023-05-10T06:10:45;100802.50;;;11.72;84.52
78407;BME280;67692;51.074;-1.790;2023-05-10T06:13:12;100810.44;;;11.81;84.58
78407;BME280;67692;51.074;-1.790;2023-05-10T06:15:39;100807.69;;;11.72;82.39
78407;BME280;67692;51.074;-1.790;2023-05-10T06:18:05;100820.00;;;11.81;82.87
78407;BME280;67692;51.074;-1.790;2023-05-10T06:20:33;100808.69;;;11.69;81.28
78407;BME280;67692;51.074;-1.790;2023-05-10T06:23:00;100821.03;;;11.78;82.82
78407;BME280;67692;51.074;-1.790;2023-05-10T06:25:27;100819.47;;;11.88;82.75
78407;BME280;67692;51.074;-1.790;2023-05-10T06:27:53;100823.38;;;11.94;83.32
78407;BME280;67692;51.074;-1.790;2023-05-10T06:30:24;100825.25;;;11.92;83.21
78407;BME280;67692;51.074;-1.790;2023-05-10T06:32:53;100828.22;;;11.99;83.47
78407;BME280;67692;51.074;-1.790;2023-05-10T06:35:20;100831.56;;;12.01;82.22
78407;BME280;67692;51.074;-1.790;2023-05-10T06:37:48;100827.09;;;12.03;81.35
78407;BME280;67692;51.074;-1.790;2023-05-10T06:40:15;100834.97;;;12.01;81.82
78407;BME280;67692;51.074;-1.790;2023-05-10T06:42:42;100835.19;;;11.98;81.16
78407;BME280;67692;51.074;-1.790;2023-05-10T06:45:10;100836.41;;;12.05;81.75
78407;BME280;67692;51.074;-1.790;2023-05-10T06:47:37;100835.00;;;12.12;83.62
78407;BME280;67692;51.074;-1.790;2023-05-10T06:50:04;100833.63;;;12.19;82.63
78407;BME280;67692;51.074;-1.790;2023-05-10T06:52:31;100838.81;;;12.19;81.13
78407;BME280;67692;51.074;-1.790;2023-05-10T06:54:59;100833.88;;;12.16;80.13
78407;BME280;67692;51.074;-1.790;2023-05-10T06:57:25;100849.63;;;12.13;80.34
78407;BME280;67692;51.074;-1.790;2023-05-10T06:59:52;100848.22;;;12.09;81.21
78407;BME280;67692;51.074;-1.790;2023-05-10T07:02:20;100848.38;;;12.19;80.66
78407;BME280;67692;51.074;-1.790;2023-05-10T07:04:47;100851.09;;;12.29;81.54
78407;BME280;67692;51.074;-1.790;2023-05-10T07:07:14;100850.56;;;12.36;81.65
78407;BME280;67692;51.074;-1.790;2023-05-10T07:09:41;100852.09;;;12.39;79.73
78407;BME280;67692;51.074;-1.790;2023-05-10T07:12:09;100850.69;;;12.35;80.12
78407;BME280;67692;51.074;-1.790;2023-05-10T07:14:35;100848.44;;;12.41;79.95
78407;BME280;67692;51.074;-1.790;2023-05-10T07:17:02;100859.47;;;12.45;79.34
78407;BME280;67692;51.074;-1.790;2023-05-10T07:19:29;100856.63;;;12.48;82.08
78407;BME280;67692;51.074;-1.790;2023-05-10T07:21:57;100852.72;;;12.54;80.84
78407;BME280;67692;51.074;-1.790;2023-05-10T07:24:24;100857.84;;;12.66;78.90
78407;BME280;67692;51.074;-1.790;2023-05-10T07:26:50;100852.91;;;12.74;79.90
78407;BME280;67692;51.074;-1.790;2023-05-10T07:29:18;100859.28;;;12.81;78.64
78407;BME280;67692;51.074;-1.790;2023-05-10T07:31:45;100857.16;;;12.87;78.97
78407;BME280;67692;51.074;-1.790;2023-05-10T07:34:11;100868.75;;;12.94;80.61
78407;BME280;67692;51.074;-1.790;2023-05-10T07:36:38;100859.44;;;13.02;78.31
78407;BME280;67692;51.074;-1.790;2023-05-10T07:39:05;100857.91;;;13.11;79.67
78407;BME280;67692;51.074;-1.790;2023-05-10T07:41:31;100867.03;;;13.17;80.23
78407;BME280;67692;51.074;-1.790;2023-05-10T07:43:58;100864.91;;;13.22;80.12
78407;BME280;67692;51.074;-1.790;2023-05-10T07:46:26;100864.22;;;13.20;77.36
78407;BME280;67692;51.074;-1.790;2023-05-10T07:48:53;100861.44;;;13.10;77.19
78407;BME280;67692;51.074;-1.790;2023-05-10T07:51:20;100863.34;;;13.08;75.94
78407;BME280;67692;51.074;-1.790;2023-05-10T07:53:46;100867.84;;;13.17;78.17
78407;BME280;67692;51.074;-1.790;2023-05-10T07:56:20;100863.13;;;13.22;77.71
78407;BME280;67692;51.074;-1.790;2023-05-10T07:58:47;100866.44;;;13.24;77.10
78407;BME280;67692;51.074;-1.790;2023-05-10T08:01:14;100857.94;;;13.33;77.90
78407;BME280;67692;51.074;-1.790;2023-05-10T08:03:42;100853.19;;;13.38;76.80
78407;BME280;67692;51.074;-1.790;2023-05-10T08:06:09;100849.66;;;13.39;76.04
78407;BME280;67692;51.074;-1.790;2023-05-10T08:08:35;100864.06;;;13.44;78.43
78407;BME280;67692;51.074;-1.790;2023-05-10T08:11:03;100855.41;;;13.54;75.98
78407;BME280;67692;51.074;-1.790;2023-05-10T08:13:29;100861.69;;;13.63;75.23
78407;BME280;67692;51.074;-1.790;2023-05-10T08:15:56;100862.81;;;13.81;77.51
78407;BME280;67692;51.074;-1.790;2023-05-10T08:18:23;100857.47;;;13.94;78.71
78407;BME280;67692;51.074;-1.790;2023-05-10T08:20:51;100864.41;;;14.05;74.08
78407;BME280;67692;51.074;-1.790;2023-05-10T08:23:17;100864.34;;;14.16;74.34
78407;BME280;67692;51.074;-1.790;2023-05-10T08:25:44;100865.00;;;14.29;76.09
78407;BME280;67692;51.074;-1.790;2023-05-10T08:28:10;100861.94;;;14.35;75.48
78407;BME280;67692;51.074;-1.790;2023-05-10T08:30:37;100874.25;;;14.33;73.80
78407;BME280;67692;51.074;-1.790;2023-05-10T08:33:04;100873.75;;;14.39;74.01
78407;BME280;67692;51.074;-1.790;2023-05-10T08:35:30;100871.38;;;14.47;75.76
78407;BME280;67692;51.074;-1.790;2023-05-10T08:37:59;100871.69;;;14.54;75.67
78407;BME280;67692;51.074;-1.790;2023-05-10T08:40:26;100874.72;;;14.59;74.84
78407;BME280;67692;51.074;-1.790;2023-05-10T08:42:58;100874.72;;;14.59;73.29
78407;BME280;67692;51.074;-1.790;2023-05-10T08:45:26;100883.13;;;14.63;74.95
78407;BME280;67692;51.074;-1.790;2023-05-10T08:47:56;100871.06;;;14.62;73.50
78407;BME280;67692;51.074;-1.790;2023-05-10T08:50:24;100874.53;;;14.72;74.80
78407;BME280;67692;51.074;-1.790;2023-05-10T08:52:53;100873.34;;;14.76;73.84
78407;BME280;67692;51.074;-1.790;2023-05-10T08:55:23;100882.63;;;14.69;74.55
78407;BME280;67692;51.074;-1.790;2023-05-10T08:57:50;100883.31;;;14.71;75.38
78407;BME280;67692;51.074;-1.790;2023-05-10T09:00:18;100876.19;;;14.73;73.71
78407;BME280;67692;51.074;-1.790;2023-05-10T09:02:45;100881.66;;;14.70;73.74
78407;BME280;67692;51.074;-1.790;2023-05-10T09:05:12;100885.97;;;14.59;71.94
78407;BME280;67692;51.074;-1.790;2023-05-10T09:07:41;100879.72;;;14.62;71.58
78407;BME280;67692;51.074;-1.790;2023-05-10T09:10:08;100874.19;;;14.76;71.05
78407;BME280;67692;51.074;-1.790;2023-05-10T09:12:37;100870.69;;;14.66;72.59
78407;BME280;67692;51.074;-1.790;2023-05-10T09:15:05;100885.22;;;14.69;72.91
78407;BME280;67692;51.074;-1.790;2023-05-10T09:17:33;100881.53;;;14.50;69.76
78407;BME280;67692;51.074;-1.790;2023-05-10T09:20:02;100872.53;;;14.43;71.75
78407;BME280;67692;51.074;-1.790;2023-05-10T09:22:29;100877.50;;;14.46;73.05
78407;BME280;67692;51.074;-1.790;2023-05-10T09:25:07;100883.88;;;14.53;73.15
78407;BME280;67692;51.074;-1.790;2023-05-10T09:27:34;100876.75;;;14.55;72.14
78407;BME280;67692;51.074;-1.790;2023-05-10T09:30:03;100879.50;;;14.54;70.87
78407;BME280;67692;51.074;-1.790;2023-05-10T09:32:37;100884.72;;;14.54;71.76
78407;BME280;67692;51.074;-1.790;2023-05-10T09:35:08;100884.66;;;14.65;72.59
78407;BME280;67692;51.074;-1.790;2023-05-10T09:37:35;100877.09;;;14.83;73.85
78407;BME280;67692;51.074;-1.790;2023-05-10T09:40:04;100870.28;;;14.92;70.42
78407;BME280;67692;51.074;-1.790;2023-05-10T09:42:33;100874.41;;;14.94;70.49
78407;BME280;67692;51.074;-1.790;2023-05-10T09:45:02;100876.31;;;14.92;70.65
78407;BME280;67692;51.074;-1.790;2023-05-10T09:47:31;100874.84;;;14.99;70.70
78407;BME280;67692;51.074;-1.790;2023-05-10T09:49:58;100875.25;;;15.04;70.22
78407;BME280;67692;51.074;-1.790;2023-05-10T09:52:28;100868.94;;;14.97;68.45
78407;BME280;67692;51.074;-1.790;2023-05-10T09:54:55;100874.91;;;15.18;70.55
78407;BME280;67692;51.074;-1.790;2023-05-10T09:57:23;100875.78;;;15.29;71.86
78407;BME280;67692;51.074;-1.790;2023-05-10T09:59:50;100876.94;;;15.36;71.96
78407;BME280;67692;51.074;-1.790;2023-05-10T10:02:20;100870.31;;;15.32;70.47
78407;BME280;67692;51.074;-1.790;2023-05-10T10:04:49;100872.25;;;15.39;71.89
78407;BME280;67692;51.074;-1.790;2023-05-10T10:07:22;100878.72;;;15.35;71.15
78407;BME280;67692;51.074;-1.790;2023-05-10T10:09:51;100873.22;;;15.38;66.75
78407;BME280;67692;51.074;-1.790;2023-05-10T10:12:18;100872.41;;;15.47;69.47
78407;BME280;67692;51.074;-1.790;2023-05-10T10:14:46;100876.84;;;15.57;68.98
78407;BME280;67692;51.074;-1.790;2023-05-10T10:17:13;100870.81;;;15.56;66.05
78407;BME280;67692;51.074;-1.790;2023-05-10T10:19:42;100875.88;;;15.58;67.37
78407;BME280;67692;51.074;-1.790;2023-05-10T10:22:09;100866.03;;;15.61;65.25
78407;BME280;67692;51.074;-1.790;2023-05-10T10:24:37;100863.03;;;15.66;67.55
78407;BME280;67692;51.074;-1.790;2023-05-10T10:27:12;100880.94;;;15.90;67.54
78407;BME280;67692;51.074;-1.790;2023-05-10T10:29:50;100869.41;;;15.92;64.85
78407;BME280;67692;51.074;-1.790;2023-05-10T10:32:24;100871.19;;;16.01;64.44
78407;BME280;67692;51.074;-1.790;2023-05-10T10:34:54;100876.72;;;16.08;66.43
78407;BME280;67692;51.074;-1.790;2023-05-10T10:37:21;100871.19;;;16.01;65.54
78407;BME280;67692;51.074;-1.790;2023-05-10T10:39:48;100879.47;;;16.06;66.71
78407;BME280;67692;51.074;-1.790;2023-05-10T10:42:44;100875.00;;;15.88;64.50
78407;BME280;67692;51.074;-1.790;2023-05-10T10:45:12;100867.44;;;15.65;64.63
78407;BME280;67692;51.074;-1.790;2023-05-10T10:47:39;100869.97;;;15.56;66.32
78407;BME280;67692;51.074;-1.790;2023-05-10T10:50:07;100863.94;;;15.55;62.96
78407;BME280;67692;51.074;-1.790;2023-05-10T10:52:35;100855.94;;;15.47;67.49
78407;BME280;67692;51.074;-1.790;2023-05-10T10:55:03;100850.97;;;15.44;63.25
78407;BME280;67692;51.074;-1.790;2023-05-10T10:57:32;100858.53;;;15.47;65.48
78407;BME280;67692;51.074;-1.790;2023-05-10T11:00:22;100868.47;;;15.53;64.58
78407;BME280;67692;51.074;-1.790;2023-05-10T11:02:50;100866.00;;;15.52;62.93
78407;BME280;67692;51.074;-1.790;2023-05-10T11:05:43;100864.25;;;15.62;65.49
78407;BME280;67692;51.074;-1.790;2023-05-10T11:08:12;100852.16;;;15.61;65.87
78407;BME280;67692;51.074;-1.790;2023-05-10T11:10:40;100857.53;;;15.69;64.47
78407;BME280;67692;51.074;-1.790;2023-05-10T11:13:08;100856.44;;;15.71;64.86
78407;BME280;67692;51.074;-1.790;2023-05-10T11:15:36;100857.81;;;15.75;63.90
78407;BME280;67692;51.074;-1.790;2023-05-10T11:18:17;100865.66;;;15.75;65.21
78407;BME280;67692;51.074;-1.790;2023-05-10T11:20:50;100850.81;;;15.86;65.62
78407;BME280;67692;51.074;-1.790;2023-05-10T11:23:17;100850.31;;;15.92;63.31
78407;BME280;67692;51.074;-1.790;2023-05-10T11:25:45;100854.16;;;15.97;63.22
78407;BME280;67692;51.074;-1.790;2023-05-10T11:28:12;100850.97;;;16.03;62.84
78407;BME280;67692;51.074;-1.790;2023-05-10T11:30:40;100843.16;;;16.13;61.73
78407;BME280;67692;51.074;-1.790;2023-05-10T11:33:07;100847.13;;;16.27;63.26
78407;BME280;67692;51.074;-1.790;2023-05-10T11:35:38;100850.00;;;16.43;63.84
78407;BME280;67692;51.074;-1.790;2023-05-10T11:38:07;100850.28;;;16.50;63.80
78407;BME280;67692;51.074;-1.790;2023-05-10T11:40:34;100846.84;;;16.49;63.48
78407;BME280;67692;51.074;-1.790;2023-05-10T11:43:02;100852.72;;;16.61;60.05
78407;BME280;67692;51.074;-1.790;2023-05-10T11:45:28;100859.19;;;16.57;57.14
78407;BME280;67692;51.074;-1.790;2023-05-10T11:47:57;100844.75;;;16.72;60.57
78407;BME280;67692;51.074;-1.790;2023-05-10T11:50:23;100850.78;;;16.82;60.69
78407;BME280;67692;51.074;-1.790;2023-05-10T11:52:51;100855.16;;;16.91;61.96
78407;BME280;67692;51.074;-1.790;2023-05-10T11:55:20;100853.03;;;17.05;61.82
78407;BME280;67692;51.074;-1.790;2023-05-10T11:57:46;100855.19;;;17.19;61.57
78407;BME280;67692;51.074;-1.790;2023-05-10T12:00:14;100850.38;;;17.24;59.59
78407;BME280;67692;51.074;-1.790;2023-05-10T12:02:40;100865.47;;;17.30;60.26
78407;BME280;67692;51.074;-1.790;2023-05-10T12:05:08;100857.63;;;17.30;58.07
78407;BME280;67692;51.074;-1.790;2023-05-10T12:07:35;100854.19;;;17.30;59.03
78407;BME280;67692;51.074;-1.790;2023-05-10T12:10:03;100863.03;;;17.19;58.27
78407;BME280;67692;51.074;-1.790;2023-05-10T12:12:37;100863.91;;;17.10;60.21
78407;BME280;67692;51.074;-1.790;2023-05-10T12:15:05;100865.56;;;17.11;61.47
78407;BME280;67692;51.074;-1.790;2023-05-10T12:17:32;100864.47;;;17.04;60.54
78407;BME280;67692;51.074;-1.790;2023-05-10T12:19:59;100865.16;;;17.06;61.91
78407;BME280;67692;51.074;-1.790;2023-05-10T12:22:38;100863.63;;;17.13;62.99
78407;BME280;67692;51.074;-1.790;2023-05-10T12:25:07;100856.22;;;17.08;59.11
78407;BME280;67692;51.074;-1.790;2023-05-10T12:27:36;100866.81;;;17.07;61.70
78407;BME280;67692;51.074;-1.790;2023-05-10T12:30:03;100854.56;;;17.07;60.29
78407;BME280;67692;51.074;-1.790;2023-05-10T12:32:40;100852.34;;;17.12;61.20
78407;BME280;67692;51.074;-1.790;2023-05-10T12:35:07;100854.91;;;17.22;61.23
78407;BME280;67692;51.074;-1.790;2023-05-10T12:37:34;100857.31;;;17.33;60.39
78407;BME280;67692;51.074;-1.790;2023-05-10T12:40:06;100859.19;;;17.23;58.35
78407;BME280;67692;51.074;-1.790;2023-05-10T12:42:33;100852.91;;;17.34;61.24
78407;BME280;67692;51.074;-1.790;2023-05-10T12:45:02;100858.59;;;17.29;61.37
78407;BME280;67692;51.074;-1.790;2023-05-10T12:47:29;100865.78;;;17.27;56.86
78407;BME280;67692;51.074;-1.790;2023-05-10T12:49:55;100866.56;;;17.37;58.30